createdAt,value
2019-05-20T00:01:01.315Z,12.07
2019-05-20T00:06:08.387Z,12.10
2019-05-20T00:08:38.903Z,10.00
2019-05-20T00:11:07.577Z,11.27
2019-05-20T00:13:36.682Z,10.20
2019-05-20T00:16:05.674Z,12.30
2019-05-20T00:18:34.312Z,11.00
2019-05-20T00:21:03.453Z,11.83
2019-05-20T00:23:32.960Z,11.80
2019-05-20T00:26:01.608Z,11.13
2019-05-20T00:31:10.497Z,12.07
2019-05-20T00:33:40.375Z,12.30
2019-05-20T00:36:09.549Z,12.77
2019-05-20T00:38:38.657Z,13.40
2019-05-20T00:41:07.709Z,14.90
2019-05-20T00:43:36.657Z,13.50
2019-05-20T00:46:05.959Z,13.00
2019-05-20T00:48:34.638Z,13.87
2019-05-20T00:51:03.299Z,14.67
2019-05-20T00:53:31.911Z,13.13
2019-05-20T00:56:00.566Z,14.80
2019-05-20T00:58:29.587Z,14.47
2019-05-20T01:00:58.204Z,13.63
2019-05-20T01:03:26.832Z,14.83
2019-05-20T01:08:34.410Z,14.23
2019-05-20T01:11:03.767Z,13.03
2019-05-20T01:13:32.375Z,16.57
2019-05-20T01:16:00.931Z,15.53
2019-05-20T01:18:29.653Z,15.97
2019-05-20T01:23:38.645Z,16.60
2019-05-20T01:26:07.252Z,18.20
2019-05-20T01:28:36.273Z,19.60
2019-05-20T01:31:04.961Z,17.20
2019-05-20T01:33:34.239Z,18.90
2019-05-20T01:36:02.863Z,17.27
2019-05-20T01:38:32.231Z,17.57
2019-05-20T01:43:38.541Z,17.73
2019-05-20T01:46:07.529Z,17.23
2019-05-20T01:48:36.125Z,18.57
2019-05-20T01:51:04.818Z,19.13
2019-05-20T01:53:33.434Z,17.40
2019-05-20T01:58:39.871Z,16.00
2019-05-20T02:03:46.398Z,17.63
2019-05-20T02:08:54.873Z,17.37
2019-05-20T02:11:23.538Z,20.07
2019-05-20T02:13:56.523Z,18.93
2019-05-20T02:16:25.543Z,16.83
2019-05-20T02:18:54.167Z,19.37
2019-05-20T02:21:22.873Z,16.97
2019-05-20T02:23:51.908Z,18.97
2019-05-20T02:26:20.520Z,18.07
2019-05-20T02:28:49.487Z,18.67
2019-05-20T02:31:18.583Z,20.20
2019-05-20T02:33:52.399Z,18.90
2019-05-20T02:36:18.204Z,19.00
2019-05-20T02:38:46.850Z,17.20
2019-05-20T02:41:15.478Z,18.33
2019-05-20T02:43:44.228Z,18.00
2019-05-20T02:48:51.257Z,18.20
2019-05-20T02:51:30.736Z,18.73
2019-05-20T02:56:40.482Z,18.10
2019-05-20T02:59:09.082Z,18.87
2019-05-20T03:04:15.589Z,17.17
2019-05-20T03:06:44.210Z,18.70
2019-05-20T03:11:58.635Z,18.57
2019-05-20T03:14:27.284Z,20.00
2019-05-20T03:19:34.868Z,19.23
2019-05-20T03:22:03.888Z,18.40
2019-05-20T03:24:32.528Z,18.53
2019-05-20T03:27:01.963Z,17.60
2019-05-20T03:29:30.607Z,19.07
2019-05-20T03:31:59.611Z,16.33
2019-05-20T03:34:45.664Z,19.63
2019-05-20T03:36:59.079Z,19.90
2019-05-20T03:39:27.820Z,17.20
2019-05-20T03:41:56.680Z,18.10
2019-05-20T03:44:26.706Z,19.77
2019-05-20T03:46:55.654Z,18.97
2019-05-20T03:49:25.185Z,20.90
2019-05-20T03:51:54.246Z,17.77
2019-05-20T03:57:01.343Z,18.43
2019-05-20T03:59:29.968Z,17.00
2019-05-20T04:01:58.571Z,17.97
2019-05-20T04:07:04.706Z,18.80
2019-05-20T04:09:33.684Z,17.20
2019-05-20T04:12:04.226Z,18.47
2019-05-20T04:14:32.898Z,17.30
2019-05-20T04:19:39.006Z,17.90
2019-05-20T04:22:08.071Z,19.77
2019-05-20T04:24:36.786Z,19.13
2019-05-20T04:29:43.376Z,19.73
2019-05-20T04:32:12.346Z,19.23
2019-05-20T04:34:41.036Z,18.43
2019-05-20T04:37:10.130Z,16.70
2019-05-20T04:39:39.035Z,20.27
2019-05-20T04:44:47.434Z,19.43
2019-05-20T04:47:16.550Z,19.83
2019-05-20T04:49:45.684Z,18.20
2019-05-20T04:52:15.051Z,16.83
2019-05-20T04:54:44.384Z,17.70
2019-05-20T04:57:13.376Z,18.37
2019-05-20T04:59:42.051Z,18.90
2019-05-20T05:02:11.105Z,18.00
2019-05-20T05:07:17.694Z,17.73
2019-05-20T05:09:46.973Z,18.67
2019-05-20T05:12:15.994Z,19.33
2019-05-20T05:14:45.000Z,19.70
2019-05-20T05:19:53.113Z,21.97
2019-05-20T05:22:22.162Z,19.97
2019-05-20T05:24:51.037Z,21.07
2019-05-20T05:27:19.822Z,22.70
2019-05-20T05:29:48.462Z,23.40
2019-05-20T05:32:37.025Z,22.00
2019-05-20T05:37:43.706Z,20.37
2019-05-20T05:40:14.113Z,20.60
2019-05-20T05:42:43.117Z,21.60
2019-05-20T05:45:12.445Z,21.33
2019-05-20T05:47:41.790Z,21.40
2019-05-20T05:50:10.711Z,20.17
2019-05-20T05:52:43.632Z,21.13
2019-05-20T05:55:12.699Z,21.03
2019-05-20T06:00:27.887Z,22.53
2019-05-20T06:02:56.841Z,20.00
2019-05-20T06:08:10.211Z,21.53
2019-05-20T06:10:39.531Z,21.73
2019-05-20T06:15:48.467Z,22.50
2019-05-20T06:18:17.482Z,23.57
2019-05-20T06:20:46.210Z,20.47
2019-05-20T06:23:14.948Z,19.87
2019-05-20T06:28:21.104Z,20.10
2019-05-20T06:33:27.585Z,19.63
2019-05-20T06:38:59.350Z,18.30
2019-05-20T06:44:07.604Z,17.57
2019-05-20T06:46:36.270Z,19.80
2019-05-20T06:49:05.310Z,19.73
2019-05-20T06:51:34.048Z,19.90
2019-05-20T06:54:02.695Z,18.90
2019-05-20T06:56:31.711Z,18.13
2019-05-20T06:59:00.804Z,18.00
2019-05-20T07:01:29.711Z,19.37
2019-05-20T07:03:58.369Z,19.10
2019-05-20T07:09:08.327Z,19.43
2019-05-20T07:11:37.795Z,22.97
2019-05-20T07:14:06.484Z,19.37
2019-05-20T07:16:35.957Z,20.93
2019-05-20T07:19:05.088Z,19.93
2019-05-20T07:21:33.765Z,20.33
2019-05-20T07:26:42.370Z,19.27
2019-05-20T07:29:11.921Z,21.13
2019-05-20T07:31:40.733Z,20.30
2019-05-20T07:34:09.892Z,18.93
2019-05-20T07:36:38.491Z,20.27
2019-05-20T07:39:07.501Z,20.30
2019-05-20T07:41:36.234Z,20.43
2019-05-20T07:44:05.842Z,19.60
2019-05-20T07:49:15.297Z,17.73
2019-05-20T07:51:45.693Z,22.33
2019-05-20T07:54:15.798Z,20.67
2019-05-20T07:59:34.659Z,18.97
2019-05-20T08:02:03.765Z,17.77
2019-05-20T08:04:32.445Z,21.90
2019-05-20T08:09:45.319Z,21.43
2019-05-20T08:12:09.459Z,19.37
2019-05-20T08:17:16.146Z,20.63
2019-05-20T08:19:45.234Z,19.57
2019-05-20T08:22:13.888Z,22.10
2019-05-20T08:24:43.006Z,21.60
2019-05-20T08:27:11.706Z,18.77
2019-05-20T08:29:41.325Z,20.77
2019-05-20T08:34:50.944Z,20.00
2019-05-20T08:37:19.958Z,18.17
2019-05-20T08:39:49.268Z,17.00
2019-05-20T08:42:18.630Z,18.87
2019-05-20T08:44:47.763Z,17.37
2019-05-20T08:47:16.404Z,17.03
2019-05-20T08:52:24.694Z,19.00
2019-05-20T08:54:54.379Z,18.53
2019-05-20T08:57:23.719Z,18.80
2019-05-20T08:59:52.880Z,21.00
2019-05-20T09:05:02.691Z,19.40
2019-05-20T09:10:09.830Z,18.20
2019-05-20T09:15:22.043Z,19.40
2019-05-20T09:20:29.881Z,15.47
2019-05-20T09:23:02.537Z,17.37
2019-05-20T09:25:30.934Z,18.67
2019-05-20T09:28:00.921Z,13.70
2019-05-20T09:30:30.969Z,15.53
2019-05-20T09:32:59.722Z,17.07
2019-05-20T09:35:29.368Z,12.90
2019-05-20T09:40:45.658Z,17.67
2019-05-20T09:43:14.616Z,14.70
2019-05-20T09:45:43.279Z,16.37
2019-05-20T09:48:13.199Z,14.43
2019-05-20T09:50:42.048Z,13.50
2019-05-20T09:55:48.502Z,14.07
2019-05-20T09:58:17.384Z,14.10
2019-05-20T10:00:46.429Z,10.88
2019-05-20T10:03:15.259Z,12.65
2019-05-20T10:05:44.523Z,12.47
2019-05-20T10:08:13.761Z,12.93
2019-05-20T10:13:22.463Z,13.20
2019-05-20T10:15:51.726Z,11.53
2019-05-20T10:21:01.834Z,11.75
2019-05-20T10:23:31.327Z,12.98
2019-05-20T10:26:00.289Z,10.70
2019-05-20T10:31:06.732Z,12.60
2019-05-20T10:33:37.164Z,10.95
2019-05-20T10:36:05.921Z,10.53
2019-05-20T10:41:15.160Z,9.30
2019-05-20T10:43:44.267Z,7.78
2019-05-20T10:46:12.928Z,8.83
2019-05-20T10:48:41.619Z,9.83
2019-05-20T10:53:54.066Z,10.60
2019-05-20T10:56:22.878Z,9.95
2019-05-20T10:58:51.766Z,9.98
2019-05-20T11:01:20.883Z,9.53
2019-05-20T11:06:28.130Z,10.48
2019-05-20T11:09:11.723Z,10.45
2019-05-20T11:11:27.860Z,10.43
2019-05-20T11:16:35.302Z,9.13
2019-05-20T11:19:04.255Z,7.33
2019-05-20T11:21:34.180Z,8.95
2019-05-20T11:24:03.087Z,7.53
2019-05-20T11:29:11.172Z,7.83
2019-05-20T11:31:40.443Z,7.90
2019-05-20T11:34:09.124Z,7.40
2019-05-20T11:36:37.908Z,7.35
2019-05-20T11:41:53.522Z,7.58
2019-05-20T11:44:17.483Z,7.95
2019-05-20T11:46:46.549Z,7.90
2019-05-20T11:49:15.658Z,6.97
2019-05-20T11:51:45.047Z,7.80
2019-05-20T11:54:14.136Z,7.33
2019-05-20T11:56:43.288Z,7.92
2019-05-20T12:01:53.157Z,7.42
2019-05-20T12:04:21.884Z,6.45
2019-05-20T12:06:50.616Z,7.47
2019-05-20T12:09:19.666Z,6.08
2019-05-20T12:14:25.853Z,6.70
2019-05-20T12:16:55.346Z,5.97
2019-05-20T12:19:24.105Z,6.65
2019-05-20T12:24:36.260Z,6.70
2019-05-20T12:27:05.320Z,6.30
2019-05-20T12:32:12.351Z,6.30
2019-05-20T12:34:41.127Z,6.97
2019-05-20T12:37:10.114Z,5.55
2019-05-20T12:39:38.823Z,6.75
2019-05-20T12:42:07.920Z,7.28
2019-05-20T12:44:36.588Z,7.30
2019-05-20T12:49:52.703Z,6.70
2019-05-20T12:52:21.444Z,7.97
2019-05-20T12:55:05.946Z,8.08
2019-05-20T12:57:20.593Z,7.62
2019-05-20T12:59:49.775Z,7.70
2019-05-20T13:02:19.001Z,7.22
2019-05-20T13:04:48.713Z,6.55
2019-05-20T13:07:17.482Z,7.08
2019-05-20T13:09:46.796Z,8.83
2019-05-20T13:12:16.580Z,6.60
2019-05-20T13:14:45.201Z,6.40
2019-05-20T13:17:14.159Z,6.40
2019-05-20T13:19:43.010Z,6.50
2019-05-20T13:22:12.129Z,6.10
2019-05-20T13:24:41.011Z,6.75
2019-05-20T13:27:09.961Z,5.75
2019-05-20T13:29:39.154Z,6.10
2019-05-20T13:32:08.157Z,5.85
2019-05-20T13:37:21.974Z,6.30
2019-05-20T13:42:35.246Z,6.00
2019-05-20T13:47:43.248Z,5.90
2019-05-20T13:50:12.475Z,5.40
2019-05-20T13:55:20.547Z,5.55
2019-05-20T13:57:49.988Z,6.08
2019-05-20T14:00:20.719Z,5.42
2019-05-20T14:05:28.750Z,5.97
2019-05-20T14:10:39.603Z,6.22
2019-05-20T14:13:08.612Z,6.22
2019-05-20T14:15:37.284Z,6.53
2019-05-20T14:18:06.575Z,6.12
2019-05-20T14:20:35.258Z,6.10
2019-05-20T14:23:04.304Z,5.75
2019-05-20T14:28:14.229Z,5.72
2019-05-20T14:33:27.972Z,5.78
2019-05-20T14:35:57.116Z,6.03
2019-05-20T14:38:26.280Z,5.60
2019-05-20T14:43:42.325Z,6.22
2019-05-20T14:46:11.023Z,6.22
2019-05-20T14:48:40.202Z,6.47
2019-05-20T14:51:09.221Z,6.47
2019-05-20T14:53:38.325Z,6.08
2019-05-20T14:56:07.015Z,6.30
2019-05-20T14:58:35.945Z,6.30
2019-05-20T15:01:04.704Z,6.67
2019-05-20T15:03:33.415Z,7.00
2019-05-20T15:06:02.105Z,6.50
2019-05-20T15:08:34.397Z,6.03
2019-05-20T15:11:02.692Z,6.67
2019-05-20T15:16:08.949Z,6.70
2019-05-20T15:21:16.288Z,6.78
2019-05-20T15:26:32.724Z,7.78
2019-05-20T15:29:01.345Z,7.67
2019-05-20T15:31:30.753Z,8.40
2019-05-20T15:33:59.888Z,8.10
2019-05-20T15:36:28.957Z,8.17
2019-05-20T15:38:57.998Z,8.70
2019-05-20T15:41:26.804Z,8.93
2019-05-20T15:46:36.551Z,8.93
2019-05-20T15:49:05.222Z,8.70
2019-05-20T15:51:34.176Z,8.73
2019-05-20T15:56:41.184Z,9.10
2019-05-20T15:59:10.142Z,9.73
2019-05-20T16:04:16.391Z,8.63
2019-05-20T16:06:45.169Z,8.07
2019-05-20T16:11:57.447Z,8.40
2019-05-20T16:14:26.981Z,8.80
2019-05-20T16:16:55.627Z,9.10
2019-05-20T16:19:24.452Z,9.13
2019-05-20T16:21:53.343Z,8.47
2019-05-20T16:24:21.977Z,9.67
2019-05-20T16:26:50.713Z,8.67
2019-05-20T16:29:19.378Z,9.37
2019-05-20T16:31:48.009Z,9.13
2019-05-20T16:36:54.273Z,9.90
2019-05-20T16:39:23.319Z,9.50
2019-05-20T16:41:52.385Z,10.00
2019-05-20T16:44:21.078Z,10.03
2019-05-20T16:49:27.290Z,10.07
2019-05-20T16:51:56.310Z,9.93
2019-05-20T16:57:05.247Z,9.77
2019-05-20T16:59:34.655Z,8.90
2019-05-20T17:02:03.755Z,9.30
2019-05-20T17:07:12.593Z,8.10
2019-05-20T17:09:41.830Z,8.33
2019-05-20T17:12:11.022Z,8.83
2019-05-20T17:14:39.683Z,8.07
2019-05-20T17:17:08.485Z,8.93
2019-05-20T17:19:37.310Z,9.07
2019-05-20T17:22:06.048Z,8.00
2019-05-20T17:24:34.847Z,9.07
2019-05-20T17:27:03.494Z,8.00
2019-05-20T17:29:32.582Z,8.57
2019-05-20T17:32:01.657Z,7.60
2019-05-20T17:34:30.642Z,8.47
2019-05-20T17:36:59.313Z,7.77
2019-05-20T17:39:28.104Z,8.40
2019-05-20T17:41:57.168Z,8.57
2019-05-20T17:47:03.835Z,8.40
2019-05-20T17:49:33.050Z,8.50
2019-05-20T17:54:39.147Z,7.97
2019-05-20T17:57:07.924Z,8.10
2019-05-20T17:59:36.987Z,7.97
2019-05-20T18:02:07.965Z,8.50
2019-05-20T18:07:16.129Z,9.10
2019-05-20T18:09:48.354Z,8.97
2019-05-20T18:12:17.495Z,9.60
2019-05-20T18:14:51.346Z,9.80
2019-05-20T18:17:20.448Z,9.67
2019-05-20T18:19:49.170Z,9.63
2019-05-20T18:22:17.998Z,10.33
2019-05-20T18:27:25.026Z,11.90
2019-05-20T18:29:54.195Z,11.03
2019-05-20T18:32:23.575Z,10.60
2019-05-20T18:34:52.873Z,10.77
2019-05-20T18:37:21.915Z,11.50
2019-05-20T18:39:51.528Z,11.47
2019-05-20T18:42:20.334Z,12.17
2019-05-20T18:44:48.994Z,12.20
2019-05-20T18:47:18.187Z,11.47
2019-05-20T18:52:24.773Z,12.27
2019-05-20T18:54:53.979Z,14.33
2019-05-20T18:57:22.972Z,13.57
2019-05-20T18:59:52.677Z,13.00
2019-05-20T19:02:21.341Z,12.93
2019-05-20T19:04:50.037Z,12.87
2019-05-20T19:07:19.358Z,12.37
2019-05-20T19:12:25.727Z,14.67
2019-05-20T19:17:37.888Z,12.13
2019-05-20T19:22:44.275Z,14.67
2019-05-20T19:27:50.484Z,15.40
2019-05-20T19:33:05.825Z,15.17
2019-05-20T19:35:35.424Z,14.53
2019-05-20T19:38:04.116Z,15.03
2019-05-20T19:40:33.154Z,15.50
2019-05-20T19:43:01.998Z,15.00
2019-05-20T19:45:31.062Z,14.57
2019-05-20T19:50:39.279Z,15.50
2019-05-20T19:53:08.042Z,15.57
2019-05-20T19:55:36.640Z,16.53
2019-05-20T19:58:05.352Z,15.27
2019-05-20T20:00:34.686Z,15.20
2019-05-20T20:03:04.038Z,14.17
2019-05-20T20:08:32.140Z,15.27
2019-05-20T20:11:00.793Z,15.23
2019-05-20T20:13:29.396Z,14.60
2019-05-20T20:18:36.897Z,16.83
2019-05-20T20:21:05.873Z,15.20
2019-05-20T20:26:14.971Z,15.77
2019-05-20T20:28:43.604Z,16.77
2019-05-20T20:31:12.564Z,16.13
2019-05-20T20:33:41.333Z,14.67
2019-05-20T20:36:09.965Z,17.07
2019-05-20T20:38:39.901Z,15.70
2019-05-20T20:41:09.473Z,15.60
2019-05-20T20:43:38.154Z,16.00
2019-05-20T20:46:06.758Z,15.77
2019-05-20T20:48:35.553Z,17.37
2019-05-20T20:51:04.660Z,15.17
2019-05-20T20:53:33.635Z,14.93
2019-05-20T20:56:02.374Z,13.53
2019-05-20T20:58:31.027Z,17.83
2019-05-20T21:00:59.637Z,17.10
2019-05-20T21:03:28.425Z,16.90
2019-05-20T21:05:57.727Z,16.57
2019-05-20T21:08:26.607Z,16.13
2019-05-20T21:10:55.680Z,17.00
2019-05-20T21:16:01.827Z,17.93
2019-05-20T21:18:30.850Z,16.73
2019-05-20T21:20:59.484Z,16.57
2019-05-20T21:26:06.327Z,16.57
2019-05-20T21:28:35.291Z,16.30
2019-05-20T21:31:03.904Z,15.83
2019-05-20T21:36:10.185Z,16.30
2019-05-20T21:38:38.857Z,16.40
2019-05-20T21:43:45.614Z,15.43
2019-05-20T21:46:14.228Z,15.80
2019-05-20T21:48:42.960Z,15.37
2019-05-20T21:51:11.609Z,15.00
2019-05-20T21:53:41.328Z,14.73
2019-05-20T21:58:47.866Z,13.97
2019-05-20T22:01:16.749Z,13.10
2019-05-20T22:03:45.733Z,13.80
2019-05-20T22:08:52.289Z,13.70
2019-05-20T22:11:20.902Z,15.13
2019-05-20T22:13:49.976Z,14.20
2019-05-20T22:18:56.342Z,13.90
2019-05-20T22:21:29.445Z,15.30
2019-05-20T22:24:00.591Z,15.27
2019-05-20T22:26:29.201Z,13.10
2019-05-20T22:28:58.457Z,14.40
2019-05-20T22:31:27.198Z,13.87
2019-05-20T22:33:55.818Z,14.27
2019-05-20T22:39:02.782Z,16.00
2019-05-20T22:41:31.746Z,14.47
2019-05-20T22:44:00.372Z,15.80
2019-05-20T22:46:29.388Z,16.93
2019-05-20T22:48:58.412Z,16.20
2019-05-20T22:51:27.337Z,17.70
2019-05-20T22:53:56.402Z,17.87
2019-05-20T22:56:25.041Z,16.13
2019-05-20T22:58:54.015Z,14.20
2019-05-20T23:01:22.750Z,16.80
2019-05-20T23:06:28.905Z,16.27
2019-05-20T23:08:57.853Z,16.37
2019-05-20T23:11:26.566Z,17.07
2019-05-20T23:13:55.231Z,14.73
2019-05-20T23:16:24.575Z,18.33
2019-05-20T23:21:30.240Z,15.87
2019-05-20T23:26:44.720Z,17.70
2019-05-20T23:29:14.136Z,16.73
2019-05-20T23:31:42.861Z,18.70
2019-05-20T23:36:48.547Z,16.50
2019-05-20T23:39:17.989Z,18.83
2019-05-20T23:44:24.877Z,16.73
2019-05-20T23:46:53.852Z,18.70
2019-05-20T23:49:22.628Z,19.47
2019-05-20T23:51:51.317Z,20.17
2019-05-20T23:56:59.198Z,18.40
